createdAt,value
2018-08-02T00:02:07.172Z,27.30
2018-08-02T00:04:35.393Z,27.30
2018-08-02T00:07:03.613Z,27.10
2018-08-02T00:09:32.166Z,27.10
2018-08-02T00:12:00.713Z,27.10
2018-08-02T00:14:28.950Z,27.00
2018-08-02T00:19:25.174Z,27.00
2018-08-02T00:21:54.350Z,26.90
2018-08-02T00:24:22.948Z,26.80
2018-08-02T00:26:51.149Z,26.80
2018-08-02T00:29:19.389Z,26.70
2018-08-02T00:31:48.021Z,26.70
2018-08-02T00:34:16.916Z,26.70
2018-08-02T00:36:45.150Z,26.60
2018-08-02T00:39:13.857Z,26.60
2018-08-02T00:41:42.190Z,26.60
2018-08-02T00:44:11.304Z,26.60
2018-08-02T00:46:40.074Z,26.60
2018-08-02T00:49:09.601Z,26.50
2018-08-02T00:51:38.953Z,26.50
2018-08-02T00:54:07.178Z,26.50
2018-08-02T00:56:36.061Z,26.40
2018-08-02T00:59:04.637Z,26.40
2018-08-02T01:01:33.190Z,26.40
2018-08-02T01:04:01.769Z,26.40
2018-08-02T01:06:30.661Z,26.40
2018-08-02T01:08:59.249Z,26.40
2018-08-02T01:11:28.180Z,26.30
2018-08-02T01:13:57.535Z,26.30
2018-08-02T01:16:26.446Z,26.30
2018-08-02T01:18:55.001Z,26.20
2018-08-02T01:21:23.557Z,26.20
2018-08-02T01:23:52.126Z,26.20
2018-08-02T01:26:20.689Z,26.10
2018-08-02T01:28:49.652Z,26.10
2018-08-02T01:31:17.870Z,26.00
2018-08-02T01:33:46.874Z,25.90
2018-08-02T01:36:15.121Z,25.90
2018-08-02T01:38:43.355Z,25.90
2018-08-02T01:41:11.965Z,25.90
2018-08-02T01:43:40.521Z,25.90
2018-08-02T01:46:08.741Z,25.80
2018-08-02T01:48:37.288Z,25.80
2018-08-02T01:51:05.515Z,25.80
2018-08-02T01:53:34.216Z,25.80
2018-08-02T01:56:02.765Z,25.80
2018-08-02T01:58:31.321Z,25.70
2018-08-02T02:00:59.546Z,25.70
2018-08-02T02:03:28.110Z,25.70
2018-08-02T02:05:56.661Z,25.70
2018-08-02T02:08:25.573Z,25.70
2018-08-02T02:10:54.699Z,25.60
2018-08-02T02:13:23.265Z,25.60
2018-08-02T02:15:52.161Z,25.60
2018-08-02T02:18:20.730Z,25.60
2018-08-02T02:20:49.391Z,25.50
2018-08-02T02:23:17.616Z,25.50
2018-08-02T02:25:46.188Z,25.50
2018-08-02T02:28:14.768Z,25.50
2018-08-02T02:30:43.001Z,25.50
2018-08-02T02:33:12.061Z,25.50
2018-08-02T02:35:41.479Z,25.40
2018-08-02T02:38:09.702Z,25.30
2018-08-02T02:40:38.465Z,25.20
2018-08-02T02:43:07.043Z,25.20
2018-08-02T02:45:35.302Z,25.10
2018-08-02T02:48:03.533Z,25.10
2018-08-02T02:50:32.088Z,25.00
2018-08-02T02:53:00.333Z,25.00
2018-08-02T02:55:28.888Z,24.90
2018-08-02T02:57:57.585Z,24.80
2018-08-02T03:00:25.837Z,24.80
2018-08-02T03:02:54.401Z,24.70
2018-08-02T03:05:22.652Z,24.80
2018-08-02T03:07:51.201Z,24.80
2018-08-02T03:10:19.760Z,24.70
2018-08-02T03:12:48.028Z,24.70
2018-08-02T03:15:16.411Z,24.50
2018-08-02T03:17:45.306Z,24.50
2018-08-02T03:20:13.869Z,24.60
2018-08-02T03:22:42.078Z,24.60
2018-08-02T03:25:10.281Z,24.60
2018-08-02T03:27:38.960Z,24.70
2018-08-02T03:30:07.241Z,24.70
2018-08-02T03:32:36.893Z,24.70
2018-08-02T03:35:05.873Z,24.60
2018-08-02T03:37:34.080Z,24.50
2018-08-02T03:40:02.288Z,24.50
2018-08-02T03:42:31.166Z,24.40
2018-08-02T03:44:59.721Z,24.40
2018-08-02T03:47:28.597Z,24.40
2018-08-02T03:49:56.812Z,24.30
2018-08-02T03:52:25.018Z,24.30
2018-08-02T03:54:53.650Z,24.20
2018-08-02T03:57:22.347Z,24.20
2018-08-02T03:59:50.552Z,24.20
2018-08-02T04:02:19.106Z,24.10
2018-08-02T04:04:47.312Z,24.10
2018-08-02T04:07:15.857Z,24.10
2018-08-02T04:09:44.068Z,24.10
2018-08-02T04:12:12.285Z,24.10
2018-08-02T04:14:41.488Z,24.00
2018-08-02T04:17:09.716Z,24.00
2018-08-02T04:19:38.283Z,24.00
2018-08-02T04:22:06.857Z,24.10
2018-08-02T04:24:35.401Z,24.00
2018-08-02T04:27:03.985Z,24.10
2018-08-02T04:29:32.202Z,24.10
2018-08-02T04:32:00.757Z,24.00
2018-08-02T04:34:28.987Z,23.90
2018-08-02T04:36:57.513Z,24.00
2018-08-02T04:39:26.086Z,24.10
2018-08-02T04:41:54.299Z,24.10
2018-08-02T04:44:23.232Z,24.20
2018-08-02T04:46:51.474Z,24.10
2018-08-02T04:49:19.681Z,24.10
2018-08-02T04:51:48.818Z,24.10
2018-08-02T04:54:17.412Z,24.20
2018-08-02T04:56:46.783Z,24.30
2018-08-02T04:59:15.602Z,24.40
2018-08-02T05:01:44.717Z,24.40
2018-08-02T05:04:15.682Z,24.30
2018-08-02T05:06:43.914Z,24.30
2018-08-02T05:09:12.312Z,24.40
2018-08-02T05:11:41.201Z,24.40
2018-08-02T05:14:16.492Z,24.30
2018-08-02T05:16:46.053Z,24.30
2018-08-02T05:19:15.072Z,24.30
2018-08-02T05:21:44.975Z,24.30
2018-08-02T05:24:13.222Z,24.40
2018-08-02T05:26:41.963Z,24.50
2018-08-02T05:29:10.599Z,24.40
2018-08-02T05:31:38.844Z,24.50
2018-08-02T05:34:10.318Z,24.60
2018-08-02T05:36:39.771Z,24.70
2018-08-02T05:39:09.201Z,24.60
2018-08-02T05:41:39.664Z,24.70
2018-08-02T05:44:08.719Z,24.90
2018-08-02T05:46:37.835Z,25.10
2018-08-02T05:49:07.757Z,25.20
2018-08-02T05:51:51.121Z,25.00
2018-08-02T05:54:20.079Z,25.00
2018-08-02T05:57:00.285Z,25.20
2018-08-02T05:59:28.509Z,25.10
2018-08-02T06:01:57.157Z,25.10
2018-08-02T06:04:26.593Z,25.30
2018-08-02T06:09:27.777Z,25.50
2018-08-02T06:14:31.480Z,25.70
2018-08-02T06:17:03.182Z,25.70
2018-08-02T06:19:32.198Z,25.90
2018-08-02T06:22:01.094Z,25.80
2018-08-02T06:24:29.391Z,25.90
2018-08-02T06:26:57.651Z,25.90
2018-08-02T06:29:27.303Z,26.00
2018-08-02T06:31:56.222Z,26.00
2018-08-02T06:34:25.558Z,26.10
2018-08-02T06:36:54.236Z,26.00
2018-08-02T06:39:23.004Z,26.10
2018-08-02T06:41:51.388Z,26.10
2018-08-02T06:44:20.241Z,26.10
2018-08-02T06:46:48.479Z,26.10
2018-08-02T06:49:18.013Z,26.10
2018-08-02T06:51:46.820Z,26.00
2018-08-02T06:54:15.737Z,25.80
2018-08-02T06:56:44.620Z,26.00
2018-08-02T06:59:12.849Z,26.10
2018-08-02T07:01:42.509Z,26.10
2018-08-02T07:04:12.540Z,26.10
2018-08-02T07:06:40.757Z,26.30
2018-08-02T07:09:11.128Z,26.30
2018-08-02T07:11:40.021Z,26.20
2018-08-02T07:14:08.721Z,26.20
2018-08-02T07:16:37.306Z,26.30
2018-08-02T07:19:06.386Z,26.30
2018-08-02T07:21:36.392Z,26.40
2018-08-02T07:24:05.818Z,26.70
2018-08-02T07:26:34.416Z,26.80
2018-08-02T07:29:02.652Z,26.80
2018-08-02T07:31:31.218Z,26.80
2018-08-02T07:33:59.768Z,26.50
2018-08-02T07:36:28.335Z,26.50
2018-08-02T07:38:57.232Z,26.50
2018-08-02T07:41:25.444Z,26.60
2018-08-02T07:43:53.978Z,26.50
2018-08-02T07:46:22.566Z,26.70
2018-08-02T07:48:51.271Z,26.60
2018-08-02T07:51:23.291Z,26.70
2018-08-02T07:53:51.544Z,26.70
2018-08-02T07:56:20.405Z,26.90
2018-08-02T07:58:48.797Z,26.90
2018-08-02T08:01:17.023Z,26.90
2018-08-02T08:03:45.584Z,26.80
2018-08-02T08:06:13.802Z,26.70
2018-08-02T08:08:42.026Z,26.80
2018-08-02T08:11:11.202Z,26.90
2018-08-02T08:13:39.952Z,27.10
2018-08-02T08:16:08.527Z,27.30
2018-08-02T08:18:37.560Z,27.50
2018-08-02T08:21:06.300Z,27.60
2018-08-02T08:23:34.866Z,27.70
2018-08-02T08:26:03.441Z,27.80
2018-08-02T08:28:31.656Z,28.00
2018-08-02T08:31:00.585Z,28.20
2018-08-02T08:33:28.811Z,28.30
2018-08-02T08:35:58.298Z,28.50
2018-08-02T08:38:27.252Z,28.60
2018-08-02T08:40:55.841Z,28.70
2018-08-02T08:43:24.451Z,28.80
2018-08-02T08:45:53.170Z,28.80
2018-08-02T08:48:21.720Z,29.00
2018-08-02T08:50:50.292Z,29.20
2018-08-02T08:53:18.739Z,29.30
2018-08-02T08:55:48.081Z,29.50
2018-08-02T08:58:16.304Z,29.50
2018-08-02T09:00:44.538Z,29.60
2018-08-02T09:03:13.120Z,29.80
2018-08-02T09:05:41.865Z,29.90
2018-08-02T09:08:10.454Z,29.90
2018-08-02T09:10:39.060Z,29.90
2018-08-02T09:13:08.069Z,30.00
2018-08-02T09:15:36.629Z,30.10
2018-08-02T09:18:05.196Z,30.20
2018-08-02T09:20:33.760Z,30.40
2018-08-02T09:23:02.889Z,30.50
2018-08-02T09:25:31.105Z,30.60
2018-08-02T09:27:59.320Z,30.80
2018-08-02T09:30:28.209Z,30.90
2018-08-02T09:32:57.185Z,30.90
2018-08-02T09:35:26.256Z,31.10
2018-08-02T09:37:55.191Z,31.20
2018-08-02T09:40:25.338Z,31.30
2018-08-02T09:42:56.332Z,31.40
2018-08-02T09:45:24.593Z,31.40
2018-08-02T09:47:53.144Z,31.50
2018-08-02T09:50:21.655Z,31.50
2018-08-02T09:52:50.240Z,31.70
2018-08-02T09:55:18.456Z,31.70
2018-08-02T09:57:47.331Z,31.90
2018-08-02T10:00:20.489Z,32.00
2018-08-02T10:02:49.053Z,31.90
2018-08-02T10:05:17.286Z,32.10
2018-08-02T10:07:46.669Z,32.00
2018-08-02T10:10:16.105Z,32.10
2018-08-02T10:12:44.644Z,32.20
2018-08-02T10:15:13.782Z,32.40
2018-08-02T10:17:42.847Z,32.60
2018-08-02T10:20:11.053Z,32.80
2018-08-02T10:22:40.122Z,32.80
2018-08-02T10:25:09.054Z,32.90
2018-08-02T10:27:37.303Z,33.00
2018-08-02T10:30:06.305Z,33.10
2018-08-02T10:32:34.979Z,33.10
2018-08-02T10:35:03.190Z,33.20
2018-08-02T10:37:31.477Z,33.30
2018-08-02T10:40:00.234Z,33.10
2018-08-02T10:42:28.596Z,33.30
2018-08-02T10:44:56.800Z,33.60
2018-08-02T10:49:53.358Z,33.60
2018-08-02T10:52:22.418Z,33.70
2018-08-02T10:54:50.988Z,33.80
2018-08-02T10:57:19.529Z,33.90
2018-08-02T10:59:48.069Z,33.90
2018-08-02T11:02:16.668Z,33.90
2018-08-02T11:04:45.053Z,34.10
2018-08-02T11:07:14.523Z,34.10
2018-08-02T11:09:43.228Z,34.10
2018-08-02T11:12:13.558Z,34.10
2018-08-02T11:14:42.110Z,34.00
2018-08-02T11:17:10.335Z,34.00
2018-08-02T11:19:39.225Z,34.30
2018-08-02T11:22:07.764Z,34.50
2018-08-02T11:24:35.978Z,34.70
2018-08-02T11:27:04.187Z,34.50
2018-08-02T11:29:33.311Z,34.60
2018-08-02T11:32:02.192Z,34.80
2018-08-02T11:34:30.401Z,34.80
2018-08-02T11:36:58.644Z,34.70
2018-08-02T11:39:28.062Z,34.80
2018-08-02T11:41:56.957Z,34.80
2018-08-02T11:44:25.508Z,35.00
2018-08-02T11:46:54.748Z,35.00
2018-08-02T11:49:23.330Z,34.50
2018-08-02T11:51:51.554Z,34.50
2018-08-02T11:54:19.846Z,34.60
2018-08-02T11:56:48.163Z,34.60
2018-08-02T11:59:16.531Z,34.80
2018-08-02T12:01:44.790Z,35.00
2018-08-02T12:04:13.448Z,35.00
2018-08-02T12:06:41.701Z,35.20
2018-08-02T12:09:11.309Z,35.50
2018-08-02T12:11:40.217Z,35.70
2018-08-02T12:14:09.112Z,35.70
2018-08-02T12:16:37.404Z,35.90
2018-08-02T12:19:06.811Z,36.20
2018-08-02T12:21:35.529Z,36.40
2018-08-02T12:24:04.994Z,36.50
2018-08-02T12:26:33.353Z,36.60
2018-08-02T12:29:02.574Z,36.70
2018-08-02T12:31:31.284Z,36.70
2018-08-02T12:33:59.855Z,36.90
2018-08-02T12:36:28.066Z,36.80
2018-08-02T12:38:56.291Z,36.70
2018-08-02T12:41:24.574Z,36.70
2018-08-02T12:43:53.022Z,36.70
2018-08-02T12:46:21.913Z,36.50
2018-08-02T12:48:50.349Z,36.40
2018-08-02T12:51:19.080Z,36.20
2018-08-02T12:53:47.637Z,35.80
2018-08-02T12:56:15.864Z,35.30
2018-08-02T12:58:44.068Z,35.30
2018-08-02T13:01:12.638Z,35.50
2018-08-02T13:03:41.036Z,35.20
2018-08-02T13:06:09.925Z,35.20
2018-08-02T13:08:38.320Z,35.50
2018-08-02T13:11:07.368Z,35.70
2018-08-02T13:13:35.950Z,35.80
2018-08-02T13:16:04.845Z,35.70
2018-08-02T13:18:33.060Z,35.80
2018-08-02T13:21:01.953Z,35.60
2018-08-02T13:23:31.436Z,35.50
2018-08-02T13:26:00.061Z,35.30
2018-08-02T13:28:28.280Z,35.30
2018-08-02T13:30:56.552Z,35.20
2018-08-02T13:33:24.797Z,35.10
2018-08-02T13:35:56.553Z,35.00
2018-08-02T13:38:26.953Z,35.00
2018-08-02T13:40:56.763Z,35.00
2018-08-02T13:43:26.076Z,35.00
2018-08-02T13:45:55.730Z,35.00
2018-08-02T13:48:25.361Z,34.90
2018-08-02T13:50:53.673Z,35.00
2018-08-02T13:53:22.013Z,35.00
2018-08-02T13:55:51.045Z,35.20
2018-08-02T13:58:20.251Z,35.10
2018-08-02T14:03:18.001Z,35.70
2018-08-02T14:05:46.897Z,35.50
2018-08-02T14:08:15.481Z,35.60
2018-08-02T14:10:44.804Z,35.90
2018-08-02T14:13:13.432Z,36.30
2018-08-02T14:15:41.656Z,36.50
2018-08-02T14:18:10.212Z,36.20
2018-08-02T14:20:38.405Z,36.10
2018-08-02T14:23:06.703Z,35.90
2018-08-02T14:25:34.938Z,35.70
2018-08-02T14:28:03.844Z,35.50
2018-08-02T14:30:32.393Z,35.50
2018-08-02T14:33:01.572Z,35.30
2018-08-02T14:35:30.455Z,35.20
2018-08-02T14:37:59.461Z,35.00
2018-08-02T14:40:28.669Z,34.60
2018-08-02T14:42:57.348Z,34.40
2018-08-02T14:45:26.002Z,34.40
2018-08-02T14:47:54.265Z,34.20
2018-08-02T14:50:22.537Z,34.50
2018-08-02T14:52:53.137Z,35.00
2018-08-02T14:55:21.571Z,35.30
2018-08-02T14:57:50.488Z,35.30
2018-08-02T15:00:19.230Z,35.50
2018-08-02T15:02:47.782Z,35.60
2018-08-02T15:05:16.327Z,35.60
2018-08-02T15:07:44.829Z,35.70
2018-08-02T15:10:13.406Z,35.70
2018-08-02T15:12:41.679Z,35.80
2018-08-02T15:15:11.532Z,35.80
2018-08-02T15:17:40.249Z,35.70
2018-08-02T15:20:09.629Z,35.70
2018-08-02T15:22:38.537Z,35.80
2018-08-02T15:25:06.885Z,35.90
2018-08-02T15:27:35.469Z,35.90
2018-08-02T15:30:04.065Z,35.90
2018-08-02T15:32:34.206Z,36.10
2018-08-02T15:35:07.023Z,36.20
2018-08-02T15:37:35.634Z,36.30
2018-08-02T15:40:03.980Z,36.20
2018-08-02T15:42:33.033Z,36.20
2018-08-02T15:45:01.636Z,36.20
2018-08-02T15:47:30.304Z,36.20
2018-08-02T15:49:58.636Z,36.10
2018-08-02T15:52:26.893Z,35.90
2018-08-02T15:54:55.598Z,35.70
2018-08-02T15:57:24.435Z,35.60
2018-08-02T15:59:53.033Z,35.50
2018-08-02T16:02:22.132Z,35.30
2018-08-02T16:04:50.747Z,35.00
2018-08-02T16:07:19.469Z,34.90
2018-08-02T16:09:47.914Z,34.80
2018-08-02T16:12:16.481Z,34.80
2018-08-02T16:14:45.381Z,34.60
2018-08-02T16:17:14.577Z,34.30
2018-08-02T16:19:43.462Z,34.30
2018-08-02T16:22:12.018Z,34.30
2018-08-02T16:24:40.692Z,34.20
2018-08-02T16:27:09.422Z,34.00
2018-08-02T16:29:38.014Z,33.70
2018-08-02T16:32:07.063Z,33.70
2018-08-02T16:34:36.819Z,33.60
2018-08-02T16:37:05.859Z,33.00
2018-08-02T16:39:34.391Z,32.70
2018-08-02T16:42:03.421Z,32.70
2018-08-02T16:44:32.317Z,32.70
2018-08-02T16:47:00.569Z,32.70
2018-08-02T16:49:29.112Z,32.60
2018-08-02T16:51:57.377Z,32.50
2018-08-02T16:54:25.999Z,32.40
2018-08-02T16:56:54.249Z,32.00
2018-08-02T16:59:22.488Z,31.70
2018-08-02T17:01:51.378Z,31.50
2018-08-02T17:04:20.437Z,30.90
2018-08-02T17:09:23.376Z,30.20
2018-08-02T17:11:51.598Z,29.70
2018-08-02T17:14:20.187Z,29.40
2018-08-02T17:16:49.635Z,28.80
2018-08-02T17:19:18.941Z,28.20
2018-08-02T17:21:47.187Z,28.00
2018-08-02T17:24:17.576Z,27.90
2018-08-02T17:26:47.459Z,28.00
2018-08-02T17:29:16.062Z,27.90
2018-08-02T17:31:44.642Z,28.00
2018-08-02T17:34:12.879Z,27.80
2018-08-02T17:39:10.925Z,27.50
2018-08-02T17:41:39.858Z,27.50
2018-08-02T17:44:08.797Z,27.50
2018-08-02T17:46:37.398Z,27.60
2018-08-02T17:49:05.842Z,27.70
2018-08-02T17:51:34.443Z,27.70
2018-08-02T17:54:03.402Z,28.00
2018-08-02T17:56:32.664Z,27.80
2018-08-02T17:59:01.289Z,27.60
2018-08-02T18:01:30.007Z,27.40
2018-08-02T18:03:58.340Z,27.40
2018-08-02T18:06:26.634Z,27.40
2018-08-02T18:08:55.370Z,27.40
2018-08-02T18:11:24.165Z,27.50
2018-08-02T18:13:52.867Z,27.50
2018-08-02T18:16:21.149Z,27.50
2018-08-02T18:18:49.520Z,27.50
2018-08-02T18:21:18.132Z,27.50
2018-08-02T18:26:14.517Z,27.40
2018-08-02T18:28:42.764Z,27.40
2018-08-02T18:31:13.097Z,27.50
2018-08-02T18:33:44.026Z,27.50
2018-08-02T18:36:12.600Z,27.50
2018-08-02T18:38:41.378Z,27.40
2018-08-02T18:41:10.322Z,27.10
2018-08-02T18:43:39.501Z,27.00
2018-08-02T18:46:07.954Z,27.00
2018-08-02T18:48:36.579Z,26.90
2018-08-02T18:51:05.385Z,26.90
2018-08-02T18:53:34.231Z,26.70
2018-08-02T18:56:02.987Z,26.70
2018-08-02T18:58:31.586Z,26.70
2018-08-02T19:01:04.162Z,26.80
2018-08-02T19:03:32.974Z,26.70
2018-08-02T19:06:03.162Z,26.60
2018-08-02T19:08:31.403Z,26.60
2018-08-02T19:10:59.965Z,26.70
2018-08-02T19:13:28.593Z,26.50
2018-08-02T19:15:56.903Z,26.50
2018-08-02T19:18:25.740Z,26.50
2018-08-02T19:20:55.618Z,26.40
2018-08-02T19:23:23.886Z,26.40
2018-08-02T19:25:52.838Z,26.50
2018-08-02T19:28:21.726Z,26.80
2018-08-02T19:30:50.469Z,26.80
2018-08-02T19:33:19.648Z,26.50
2018-08-02T19:35:47.945Z,26.50
2018-08-02T19:38:16.243Z,26.40
2018-08-02T19:40:44.852Z,26.50
2018-08-02T19:43:13.689Z,26.70
2018-08-02T19:45:41.906Z,26.60
2018-08-02T19:48:10.488Z,26.50
2018-08-02T19:50:39.077Z,26.60
2018-08-02T19:53:07.688Z,26.60
2018-08-02T19:55:35.933Z,26.70
2018-08-02T19:58:04.201Z,26.90
2018-08-02T20:00:33.132Z,26.70
2018-08-02T20:03:02.070Z,26.60
2018-08-02T20:05:30.986Z,26.60
2018-08-02T20:08:01.537Z,26.60
2018-08-02T20:10:30.096Z,26.50
2018-08-02T20:12:58.673Z,26.50
2018-08-02T20:15:27.261Z,26.50
2018-08-02T20:17:56.181Z,26.50
2018-08-02T20:20:24.761Z,26.40
2018-08-02T20:22:53.058Z,26.40
2018-08-02T20:25:21.790Z,26.30
2018-08-02T20:27:50.455Z,26.20
2018-08-02T20:30:19.851Z,26.20
2018-08-02T20:32:48.874Z,26.20
2018-08-02T20:35:17.157Z,26.10
2018-08-02T20:37:46.870Z,26.00
2018-08-02T20:40:15.478Z,26.00
2018-08-02T20:42:44.706Z,26.00
2018-08-02T20:45:13.639Z,26.00
2018-08-02T20:47:42.455Z,25.90
2018-08-02T20:50:10.720Z,26.00
2018-08-02T20:52:39.211Z,26.00
2018-08-02T20:55:07.462Z,26.20
2018-08-02T20:57:35.732Z,26.20
2018-08-02T21:00:04.271Z,26.20
2018-08-02T21:02:32.577Z,26.20
2018-08-02T21:05:01.514Z,26.20
2018-08-02T21:07:29.954Z,26.20
2018-08-02T21:09:58.208Z,26.20
2018-08-02T21:12:26.824Z,26.10
2018-08-02T21:14:55.127Z,26.10
2018-08-02T21:17:23.377Z,26.20
2018-08-02T21:19:52.012Z,26.20
2018-08-02T21:22:20.269Z,26.30
2018-08-02T21:24:48.980Z,26.30
2018-08-02T21:27:18.264Z,26.30
2018-08-02T21:29:46.551Z,26.30
2018-08-02T21:32:15.138Z,26.20
2018-08-02T21:34:44.059Z,26.00
2018-08-02T21:37:12.326Z,26.00
2018-08-02T21:39:40.961Z,26.00
2018-08-02T21:42:10.473Z,26.10
2018-08-02T21:44:40.245Z,26.00
2018-08-02T21:47:08.835Z,25.90
2018-08-02T21:49:37.410Z,26.00
2018-08-02T21:52:06.401Z,26.00
2018-08-02T21:54:34.913Z,25.90
2018-08-02T21:57:03.502Z,25.80
2018-08-02T21:59:32.323Z,25.90
2018-08-02T22:02:02.756Z,25.90
2018-08-02T22:04:31.388Z,25.90
2018-08-02T22:07:05.315Z,25.80
2018-08-02T22:09:33.657Z,25.70
2018-08-02T22:12:07.765Z,25.60
2018-08-02T22:14:42.031Z,25.50
2018-08-02T22:17:11.849Z,25.50
2018-08-02T22:19:40.502Z,25.50
2018-08-02T22:22:09.074Z,25.40
2018-08-02T22:24:37.654Z,25.40
2018-08-02T22:27:06.047Z,25.40
2018-08-02T22:29:36.203Z,25.50
2018-08-02T22:32:04.441Z,25.50
2018-08-02T22:34:33.353Z,25.40
2018-08-02T22:37:01.596Z,25.40
2018-08-02T22:41:59.274Z,25.30
2018-08-02T22:44:27.528Z,25.20
2018-08-02T22:46:55.754Z,25.20
2018-08-02T22:49:24.077Z,25.20
2018-08-02T22:51:53.105Z,25.20
2018-08-02T22:54:21.601Z,25.20
2018-08-02T22:56:50.878Z,25.10
2018-08-02T22:59:19.460Z,25.10
2018-08-02T23:01:47.685Z,25.10
2018-08-02T23:04:15.970Z,25.10
2018-08-02T23:06:44.309Z,25.10
2018-08-02T23:09:13.147Z,25.20
2018-08-02T23:11:42.013Z,25.10
2018-08-02T23:14:11.064Z,25.10
2018-08-02T23:16:40.615Z,25.20
2018-08-02T23:19:09.173Z,25.20
2018-08-02T23:21:38.578Z,25.20
2018-08-02T23:24:06.813Z,25.20
2018-08-02T23:26:35.524Z,25.10
2018-08-02T23:29:05.013Z,25.10
2018-08-02T23:31:33.287Z,25.00
2018-08-02T23:36:29.584Z,25.00
2018-08-02T23:38:58.301Z,24.80
2018-08-02T23:41:26.854Z,24.80
2018-08-02T23:43:55.068Z,24.70
2018-08-02T23:46:23.674Z,24.70
2018-08-02T23:48:51.897Z,24.80
2018-08-02T23:51:20.130Z,24.80
2018-08-02T23:53:48.349Z,24.80
2018-08-02T23:56:18.529Z,24.70
2018-08-02T23:58:47.121Z,24.80
